Terminal Aerodrome Forecast
Issued by NWS Bismarck, ND

Home | Current Version | Previous Version | Graphics & Text | Print | Product List | Glossary On
Versions: 1 2 3 4 5 6 7 8 9 10 11 12 13 14 15 16 17 18 19
000
FTUS43 KBIS 250800 AAA
TAFBIS
TAF AMD
KBIS 250827Z 2508/2606 29005KT P6SM BKN070 OVC100
      TEMPO 2508/2510 SCT070
     FM251000 33007KT P6SM SCT015 BKN025
      TEMPO 2510/2512 BKN015 OVC025
     FM251200 34009KT 5SM -SHSN BR BKN007 OVC015
     FM251600 35014KT P6SM -SHSN OVC015
     FM260200 33012KT P6SM SCT015 SCT035=

USA.gov is the U.S. government's official web portal to all federal, state and local government web resources and services.